createdAt,value
2017-03-22T08:02:43.923Z,3772
2017-03-22T08:03:24.509Z,3788
2017-03-22T08:04:05.081Z,3796
2017-03-22T08:04:45.663Z,3784
2017-03-22T08:05:26.223Z,3768
2017-03-22T08:06:06.793Z,3772
2017-03-22T08:06:47.381Z,3764
2017-03-22T08:07:28.964Z,3772
2017-03-22T08:08:09.544Z,3772
2017-03-22T08:08:50.112Z,3768
2017-03-22T08:09:30.679Z,3760
2017-03-22T08:10:11.247Z,3680
2017-03-22T08:10:51.821Z,3640
2017-03-22T08:11:32.387Z,3640
2017-03-22T08:12:12.979Z,3696
2017-03-22T08:12:53.525Z,3684
2017-03-22T08:13:34.087Z,3696
2017-03-22T08:14:14.702Z,3728
2017-03-22T08:14:57.275Z,3728
2017-03-22T08:15:37.869Z,3732
2017-03-22T08:16:18.432Z,3744
2017-03-22T08:16:59.011Z,3752
2017-03-22T08:17:39.623Z,3760
2017-03-22T08:18:20.232Z,3784
2017-03-22T08:19:00.777Z,3772
2017-03-22T08:19:41.346Z,3776
2017-03-22T08:20:21.940Z,3724
2017-03-22T08:21:02.501Z,3640
2017-03-22T08:21:43.082Z,3764
2017-03-22T08:22:23.650Z,3756
2017-03-22T08:23:04.215Z,3780
2017-03-22T08:23:44.787Z,3812
2017-03-22T08:24:25.361Z,3828
2017-03-22T08:25:05.941Z,3824
2017-03-22T08:25:46.507Z,3812
2017-03-22T08:26:27.115Z,3852
2017-03-22T08:27:07.720Z,3856
2017-03-22T08:27:48.294Z,3864
2017-03-22T08:28:28.871Z,3856
2017-03-22T08:29:09.453Z,3852
2017-03-22T08:29:51.036Z,3896
2017-03-22T08:30:31.629Z,3924
2017-03-22T08:31:14.170Z,3908
2017-03-22T08:31:54.734Z,3892
2017-03-22T08:32:35.316Z,3912
2017-03-22T08:33:15.884Z,3932
2017-03-22T08:33:56.479Z,3900
2017-03-22T08:34:37.070Z,3932
2017-03-22T08:35:17.624Z,3908
2017-03-22T08:35:59.200Z,3860
2017-03-22T08:36:41.785Z,3792
2017-03-22T08:37:23.375Z,3856
2017-03-22T08:38:03.957Z,3848
2017-03-22T08:38:46.540Z,3852
2017-03-22T08:39:27.100Z,3836
2017-03-22T08:40:07.695Z,3816
2017-03-22T08:40:48.288Z,3888
2017-03-22T08:41:28.878Z,3928
2017-03-22T08:42:09.468Z,3924
2017-03-22T08:42:50.020Z,3948
2017-03-22T08:43:30.615Z,3972
2017-03-22T08:44:12.163Z,3944
2017-03-22T08:44:57.421Z,3912
2017-03-22T08:45:37.990Z,3972
2017-03-22T08:46:18.562Z,3968
2017-03-22T08:46:59.146Z,4060
2017-03-22T08:47:39.701Z,3996
2017-03-22T08:48:20.355Z,3996
2017-03-22T08:49:00.916Z,4016
2017-03-22T08:49:42.536Z,4000
2017-03-22T08:50:23.154Z,4004
2017-03-22T08:51:03.729Z,4004
2017-03-22T08:51:44.370Z,4012
2017-03-22T08:52:29.944Z,4020
2017-03-22T08:53:10.534Z,4012
2017-03-22T08:53:52.126Z,4020
2017-03-22T08:54:32.694Z,4028
2017-03-22T08:55:13.335Z,4116
2017-03-22T08:55:53.907Z,4104
2017-03-22T08:56:34.496Z,4044
2017-03-22T08:57:15.075Z,4044
2017-03-22T08:57:56.651Z,4044
2017-03-22T08:58:37.245Z,4024
2017-03-22T08:59:17.816Z,4052
2017-03-22T08:59:58.386Z,4028
2017-03-22T09:00:40.082Z,4052
2017-03-22T09:01:20.697Z,4044
2017-03-22T09:02:02.258Z,4064
2017-03-22T09:02:42.832Z,4068
2017-03-22T09:03:23.462Z,4068
2017-03-22T09:04:04.035Z,4236
2017-03-22T09:04:44.592Z,4084
2017-03-22T09:05:25.140Z,4100
2017-03-22T09:06:05.720Z,4076
2017-03-22T09:06:47.306Z,4096
2017-03-22T09:07:27.871Z,4108
2017-03-22T09:08:08.441Z,4192
2017-03-22T09:08:49.047Z,4200
2017-03-22T09:09:34.182Z,4128
2017-03-22T09:10:14.732Z,4216
2017-03-22T09:10:55.302Z,4128
2017-03-22T09:11:35.874Z,4140
2017-03-22T09:12:18.457Z,4140
2017-03-22T09:13:00.041Z,4156
2017-03-22T09:13:42.617Z,4164
2017-03-22T09:14:23.202Z,4176
2017-03-22T09:15:03.776Z,4184
2017-03-22T09:15:44.384Z,4192
2017-03-22T09:16:25.959Z,4180
2017-03-22T09:17:06.538Z,4216
2017-03-22T09:17:47.106Z,4212
2017-03-22T09:18:27.658Z,4232
2017-03-22T09:19:12.788Z,4252
2017-03-22T09:19:58.159Z,4268
2017-03-22T09:20:38.715Z,4260
2017-03-22T09:21:19.319Z,4276
2017-03-22T09:22:00.905Z,4392
2017-03-22T09:22:41.484Z,4316
2017-03-22T09:23:22.038Z,4320
2017-03-22T09:24:02.603Z,4320
2017-03-22T09:24:43.178Z,4296
2017-03-22T09:25:24.752Z,4272
2017-03-22T09:26:05.320Z,4308
2017-03-22T09:26:45.877Z,4228
2017-03-22T09:27:28.460Z,3956
2017-03-22T09:28:09.025Z,3812
2017-03-22T09:28:56.304Z,3940
2017-03-22T09:29:41.671Z,4208
2017-03-22T09:30:22.254Z,4104
2017-03-22T09:31:02.874Z,4336
2017-03-22T09:31:43.439Z,4368
2017-03-22T09:32:25.061Z,4356
2017-03-22T09:33:10.426Z,4392
2017-03-22T09:33:51.004Z,4276
2017-03-22T09:34:31.585Z,4292
2017-03-22T09:35:12.168Z,4576
2017-03-22T09:35:52.769Z,4324
2017-03-22T09:36:33.330Z,4276
2017-03-22T09:37:13.891Z,4304
2017-03-22T09:37:54.463Z,4348
2017-03-22T09:38:35.074Z,4416
2017-03-22T09:39:16.654Z,4452
2017-03-22T09:39:58.224Z,4488
2017-03-22T09:40:39.842Z,4488
2017-03-22T09:41:20.406Z,4444
2017-03-22T09:42:00.963Z,4112
2017-03-22T09:42:41.544Z,4308
2017-03-22T09:43:24.134Z,4292
2017-03-22T09:44:04.708Z,4492
2017-03-22T09:44:45.419Z,4452
2017-03-22T09:45:25.981Z,4300
2017-03-22T09:46:06.538Z,4320
2017-03-22T09:46:47.121Z,4300
2017-03-22T09:47:28.043Z,4248
2017-03-22T09:48:09.482Z,4240
2017-03-22T09:48:50.956Z,4196
2017-03-22T09:49:32.291Z,4236
2017-03-22T09:50:13.626Z,4176
2017-03-22T09:50:55.973Z,4156
2017-03-22T09:51:41.918Z,4200
2017-03-22T09:52:22.494Z,4392
2017-03-22T09:53:03.083Z,4840
2017-03-22T09:53:44.657Z,4840
2017-03-22T09:54:30.908Z,5072
2017-03-22T09:55:11.497Z,4892
2017-03-22T09:55:52.100Z,4892
2017-03-22T09:56:32.696Z,4896
2017-03-22T09:57:13.291Z,4904
2017-03-22T09:57:53.884Z,4888
2017-03-22T09:58:36.454Z,4924
2017-03-22T09:59:19.058Z,4936
2017-03-22T10:00:00.646Z,4936
2017-03-22T10:00:41.291Z,4940
2017-03-22T10:01:21.943Z,4932
2017-03-22T10:02:04.540Z,4948
2017-03-22T10:02:45.194Z,4960
2017-03-22T10:03:25.912Z,5080
2017-03-22T10:04:07.530Z,4932
2017-03-22T10:04:48.174Z,4956
2017-03-22T10:05:28.827Z,4992
2017-03-22T10:06:10.539Z,5012
2017-03-22T10:06:51.821Z,5012
2017-03-22T10:07:32.948Z,5024
2017-03-22T10:08:14.068Z,5012
2017-03-22T10:08:55.228Z,5004
2017-03-22T10:09:36.415Z,4996
2017-03-22T10:10:17.512Z,4976
2017-03-22T10:10:58.419Z,4968
2017-03-22T10:11:39.084Z,5012
2017-03-22T10:12:19.666Z,5052
2017-03-22T10:13:00.316Z,5064
2017-03-22T10:13:40.976Z,4988
2017-03-22T10:14:21.629Z,4988
2017-03-22T10:15:02.276Z,5076
2017-03-22T10:15:42.923Z,5048
2017-03-22T10:16:23.587Z,5136
2017-03-22T10:17:04.254Z,5056
2017-03-22T10:17:44.910Z,4896
2017-03-22T10:18:25.475Z,4516
2017-03-22T10:19:06.172Z,4928
2017-03-22T10:19:46.851Z,5020
2017-03-22T10:20:27.501Z,4996
2017-03-22T10:21:08.071Z,5040
2017-03-22T10:21:48.670Z,5076
2017-03-22T10:22:29.390Z,5084
2017-03-22T10:23:10.016Z,4956
2017-03-22T10:23:50.682Z,5324
2017-03-22T10:24:31.312Z,5684
2017-03-22T10:25:12.006Z,5352
2017-03-22T10:25:52.629Z,5300
2017-03-22T10:26:34.298Z,5324
2017-03-22T10:27:14.958Z,5416
2017-03-22T10:27:55.946Z,5424
2017-03-22T10:28:37.287Z,5616
2017-03-22T10:29:18.265Z,5340
2017-03-22T10:29:59.962Z,5348
2017-03-22T10:30:41.575Z,5440
2017-03-22T10:31:24.024Z,5452
2017-03-22T10:32:05.489Z,5384
2017-03-22T10:32:46.597Z,5388
2017-03-22T10:33:27.499Z,5396
2017-03-22T10:34:08.919Z,5332
2017-03-22T10:34:50.166Z,5404
2017-03-22T10:35:30.878Z,5364
2017-03-22T10:36:11.531Z,5400
2017-03-22T10:36:52.095Z,5420
2017-03-22T10:37:32.700Z,5432
2017-03-22T10:38:13.283Z,5444
2017-03-22T10:38:53.921Z,5428
2017-03-22T10:39:35.318Z,5440
2017-03-22T10:40:16.753Z,5456
2017-03-22T10:40:58.087Z,5448
2017-03-22T10:41:39.391Z,5412
2017-03-22T10:42:20.398Z,5432
2017-03-22T10:43:02.088Z,5428
2017-03-22T10:43:43.743Z,5428
2017-03-22T10:44:25.844Z,5424
2017-03-22T10:45:07.303Z,5432
2017-03-22T10:45:49.050Z,5448
2017-03-22T10:46:30.281Z,6404
2017-03-22T10:47:12.767Z,5468
2017-03-22T10:48:00.396Z,5460
2017-03-22T10:48:42.986Z,5540
2017-03-22T10:49:24.979Z,5556
2017-03-22T10:50:06.346Z,5552
2017-03-22T10:50:48.909Z,5436
2017-03-22T10:51:29.557Z,5460
2017-03-22T10:52:11.222Z,5604
2017-03-22T10:52:51.775Z,5556
2017-03-22T10:53:33.483Z,5484
2017-03-22T10:54:14.107Z,5436
2017-03-22T10:54:54.766Z,5568
2017-03-22T10:55:35.406Z,5544
2017-03-22T10:56:16.072Z,5480
2017-03-22T10:56:57.741Z,5484
2017-03-22T10:57:38.397Z,5488
2017-03-22T10:58:19.003Z,5520
2017-03-22T10:59:00.682Z,5524
2017-03-22T10:59:41.276Z,5548
2017-03-22T11:00:21.925Z,5548
2017-03-22T11:01:02.505Z,5532
2017-03-22T11:01:43.091Z,5508
2017-03-22T11:02:23.702Z,5568
2017-03-22T11:03:04.342Z,5628
2017-03-22T11:03:44.994Z,5516
2017-03-22T11:04:25.646Z,5544
2017-03-22T11:05:06.300Z,5552
2017-03-22T11:05:46.956Z,5564
2017-03-22T11:06:28.625Z,5584
2017-03-22T11:07:10.762Z,5600
2017-03-22T11:07:51.362Z,5588
2017-03-22T11:08:32.020Z,5624
2017-03-22T11:09:12.675Z,5552
2017-03-22T11:09:53.333Z,5556
2017-03-22T11:10:33.991Z,5684
2017-03-22T11:11:14.854Z,5592
2017-03-22T11:11:55.526Z,5616
2017-03-22T11:12:36.145Z,5596
2017-03-22T11:13:16.803Z,5652
2017-03-22T11:13:57.443Z,5660
2017-03-22T11:14:38.101Z,5624
2017-03-22T11:15:18.756Z,5652
2017-03-22T11:15:59.408Z,5652
2017-03-22T11:16:40.059Z,5748
2017-03-22T11:17:20.738Z,5696
2017-03-22T11:18:01.369Z,5732
2017-03-22T11:18:41.951Z,5692
2017-03-22T11:19:22.641Z,5736
2017-03-22T11:20:03.319Z,5788
2017-03-22T11:20:43.995Z,5848
2017-03-22T11:21:24.556Z,5772
2017-03-22T11:22:05.285Z,5704
2017-03-22T11:22:46.955Z,5924
2017-03-22T11:23:27.618Z,6100
2017-03-22T11:24:08.237Z,5024
2017-03-22T11:24:48.891Z,4540
2017-03-22T11:25:29.463Z,4536
2017-03-22T11:26:10.148Z,4096
2017-03-22T11:26:50.718Z,4224
2017-03-22T11:27:31.383Z,4876
2017-03-22T11:28:12.045Z,4348
2017-03-22T11:28:52.738Z,4136
2017-03-22T11:29:33.304Z,4060
2017-03-22T11:30:13.909Z,4252
2017-03-22T11:30:54.588Z,4096
2017-03-22T11:31:35.234Z,4120
2017-03-22T11:32:15.793Z,4060
2017-03-22T11:32:56.418Z,4072
2017-03-22T11:33:36.996Z,4124
2017-03-22T11:34:17.647Z,4240
2017-03-22T11:34:58.299Z,4324
2017-03-22T11:35:38.965Z,4452
2017-03-22T11:36:19.607Z,4604
2017-03-22T11:37:00.258Z,4752
2017-03-22T11:37:41.944Z,4896
2017-03-22T11:38:22.592Z,5024
2017-03-22T11:39:03.263Z,5160
2017-03-22T11:39:43.917Z,5240
2017-03-22T11:40:24.570Z,5344
2017-03-22T11:41:05.214Z,5520
2017-03-22T11:41:45.852Z,5824
2017-03-22T11:42:26.508Z,6128
2017-03-22T11:43:07.090Z,6464
2017-03-22T11:43:47.679Z,6840
2017-03-22T11:44:28.265Z,7268
2017-03-22T11:45:08.821Z,7604
2017-03-22T11:45:49.385Z,8024
2017-03-22T11:46:29.973Z,8228
2017-03-22T11:47:10.558Z,8872
2017-03-22T11:47:51.122Z,8764
2017-03-22T11:48:31.690Z,8816
2017-03-22T11:49:13.275Z,10212
2017-03-22T11:49:53.844Z,9180
2017-03-22T11:50:34.431Z,9032
2017-03-22T11:51:15.003Z,8992
2017-03-22T11:51:55.628Z,9292
2017-03-22T11:52:36.232Z,10972
2017-03-22T11:53:16.823Z,9448
2017-03-22T11:53:57.407Z,9404
2017-03-22T11:54:37.941Z,9580
2017-03-22T11:55:18.526Z,9716
2017-03-22T11:55:59.108Z,9772
2017-03-22T11:56:39.696Z,9768
2017-03-22T11:57:20.269Z,9764
2017-03-22T11:58:00.846Z,9628
2017-03-22T11:58:41.413Z,9560
2017-03-22T11:59:22.001Z,9484
2017-03-22T12:00:02.588Z,9472
2017-03-22T12:00:43.169Z,9464
2017-03-22T12:01:23.751Z,9416
2017-03-22T12:02:04.357Z,9368
2017-03-22T12:02:44.951Z,9284
2017-03-22T12:03:25.500Z,9240
2017-03-22T12:04:06.471Z,9160
2017-03-22T12:04:47.058Z,9016
2017-03-22T12:05:27.636Z,8944
2017-03-22T12:06:08.214Z,8860
2017-03-22T12:06:48.808Z,8832
2017-03-22T12:07:29.358Z,8744
2017-03-22T12:08:09.921Z,8696
2017-03-22T12:08:50.483Z,8644
2017-03-22T12:09:32.067Z,8616
2017-03-22T12:10:12.721Z,8580
2017-03-22T12:10:53.298Z,8576
2017-03-22T12:11:33.876Z,8572
2017-03-22T12:12:14.462Z,8564
2017-03-22T12:12:55.048Z,8576
2017-03-22T12:13:35.616Z,8584
2017-03-22T12:14:16.176Z,8616
2017-03-22T12:14:56.766Z,8660
2017-03-22T12:15:37.334Z,8692
2017-03-22T12:16:17.903Z,8824
2017-03-22T12:16:58.456Z,9036
2017-03-22T12:17:39.033Z,9052
2017-03-22T12:18:19.607Z,9164
2017-03-22T12:19:00.207Z,9320
2017-03-22T12:19:40.777Z,9472
2017-03-22T12:20:21.347Z,9572
2017-03-22T12:21:01.963Z,9548
2017-03-22T12:21:42.542Z,9564
2017-03-22T12:22:24.133Z,9536
2017-03-22T12:23:04.683Z,9500
2017-03-22T12:23:45.267Z,9472
2017-03-22T12:24:25.851Z,9616
2017-03-22T12:25:06.442Z,9632
2017-03-22T12:25:47.033Z,9552
2017-03-22T12:26:27.596Z,9504
2017-03-22T12:27:08.164Z,9496
2017-03-22T12:27:49.757Z,9568
2017-03-22T12:28:30.351Z,9516
2017-03-22T12:29:10.924Z,9704
2017-03-22T12:29:51.531Z,9792
2017-03-22T12:30:32.098Z,9784
2017-03-22T12:31:12.702Z,9812
2017-03-22T12:31:53.277Z,9812
2017-03-22T12:32:33.848Z,9788
2017-03-22T12:33:14.416Z,9788
2017-03-22T12:33:54.997Z,9776
2017-03-22T12:34:35.567Z,9828
2017-03-22T12:35:16.148Z,9800
2017-03-22T12:35:56.711Z,9772
2017-03-22T12:36:37.295Z,9784
2017-03-22T12:37:17.869Z,9796
2017-03-22T12:37:58.453Z,9860
2017-03-22T12:38:39.044Z,9896
2017-03-22T12:39:20.697Z,9812
2017-03-22T12:40:01.254Z,9712
2017-03-22T12:40:41.853Z,9660
2017-03-22T12:41:23.446Z,9668
2017-03-22T12:42:05.097Z,10336
2017-03-22T12:42:45.668Z,10420
2017-03-22T12:43:26.257Z,10740
2017-03-22T12:44:06.832Z,10436
2017-03-22T12:44:47.408Z,10608
2017-03-22T12:45:27.973Z,10636
2017-03-22T12:46:08.576Z,10624
2017-03-22T12:46:49.141Z,11996
2017-03-22T12:47:29.712Z,12060
2017-03-22T12:48:10.291Z,10444
2017-03-22T12:48:50.892Z,10088
2017-03-22T12:49:31.455Z,10412
2017-03-22T12:50:11.998Z,9900
2017-03-22T12:50:52.591Z,10168
2017-03-22T12:51:33.155Z,10660
2017-03-22T12:52:13.763Z,11252
2017-03-22T12:52:54.337Z,11348
2017-03-22T12:53:34.905Z,9896
2017-03-22T12:54:15.513Z,9548
2017-03-22T12:54:56.077Z,10960
2017-03-22T12:55:36.686Z,8680
2017-03-22T12:56:17.225Z,9148
2017-03-22T12:56:57.806Z,10084
2017-03-22T12:57:38.377Z,8796
2017-03-22T12:58:18.986Z,9520
2017-03-22T12:58:59.624Z,8900
2017-03-22T12:59:40.206Z,8652
2017-03-22T13:00:20.790Z,10400
2017-03-22T13:01:01.419Z,8468
2017-03-22T13:01:41.977Z,7964
2017-03-22T13:02:22.540Z,7728
2017-03-22T13:03:03.126Z,7436
2017-03-22T13:03:43.716Z,7484
2017-03-22T13:04:24.334Z,7624
2017-03-22T13:05:04.908Z,7760
2017-03-22T13:05:45.493Z,7740
2017-03-22T13:06:26.095Z,7812
2017-03-22T13:07:06.661Z,7424
2017-03-22T13:07:47.240Z,7320
2017-03-22T13:08:27.798Z,8388
2017-03-22T13:09:08.398Z,9656
2017-03-22T13:09:49.088Z,9836
2017-03-22T13:10:29.664Z,9936
2017-03-22T13:11:10.267Z,10120
2017-03-22T13:11:50.856Z,9684
2017-03-22T13:12:31.442Z,9488
2017-03-22T13:13:12.021Z,9860
2017-03-22T13:13:52.609Z,10312
2017-03-22T13:14:33.181Z,9740
2017-03-22T13:15:13.760Z,9736
2017-03-22T13:15:54.343Z,10428
